createdAt,value
2023-03-23T15:57:58.304Z,99976.72
2023-03-23T16:00:28.007Z,99970.47
2023-03-23T16:02:59.257Z,99942.97
2023-03-23T16:05:27.386Z,99966.66
2023-03-23T16:07:55.333Z,99960.44
2023-03-23T16:10:24.439Z,99956.06
2023-03-23T16:12:52.315Z,99943.75
2023-03-23T16:15:20.297Z,99938.34
2023-03-23T16:17:48.246Z,99943.19
2023-03-23T16:20:19.334Z,99906.47
2023-03-23T16:22:47.371Z,99961.22
2023-03-23T16:25:15.985Z,99962.31
2023-03-23T16:27:44.358Z,99968.59
2023-03-23T16:30:16.816Z,99961.50
2023-03-23T16:32:44.817Z,99963.94
2023-03-23T16:35:12.727Z,99952.28
2023-03-23T16:37:45.895Z,99862.78
2023-03-23T16:40:14.562Z,99943.31
2023-03-23T16:42:42.811Z,99943.53
2023-03-23T16:45:11.410Z,99944.38
2023-03-23T16:47:39.383Z,99938.00
2023-03-23T16:50:09.721Z,99952.50
2023-03-23T16:52:46.204Z,99951.69
2023-03-23T16:55:16.579Z,99960.88
2023-03-23T16:57:44.975Z,99959.00
2023-03-23T17:00:19.992Z,99938.47
2023-03-23T17:02:48.641Z,99957.13
2023-03-23T17:05:17.744Z,99963.59
2023-03-23T17:07:45.727Z,99959.72
2023-03-23T17:10:15.791Z,99965.97
2023-03-23T17:12:44.237Z,99991.00
2023-03-23T17:15:12.883Z,99987.22
2023-03-23T17:17:41.197Z,99993.47
2023-03-23T17:20:11.172Z,99976.94
2023-03-23T17:22:39.198Z,99991.13
2023-03-23T17:25:08.619Z,99973.16
2023-03-23T17:27:38.194Z,100000.22
2023-03-23T17:30:09.520Z,99998.34
2023-03-23T17:32:37.698Z,99953.88
2023-03-23T17:35:05.974Z,99997.25
2023-03-23T17:37:33.968Z,100006.22
2023-03-23T17:40:03.238Z,99996.69
2023-03-23T17:42:31.226Z,99999.41
2023-03-23T17:45:00.591Z,99998.56
2023-03-23T17:47:28.509Z,100004.00
2023-03-23T17:49:57.073Z,100004.00
2023-03-23T17:52:25.073Z,99995.84
2023-03-23T17:54:53.958Z,99981.31
2023-03-23T17:57:21.921Z,99995.03
2023-03-23T17:59:49.863Z,100003.16
2023-03-23T18:02:19.698Z,99998.56
2023-03-23T18:04:47.743Z,100005.88
2023-03-23T18:07:15.737Z,100005.88
2023-03-23T18:09:45.705Z,100011.31
2023-03-23T18:12:13.720Z,99986.41
2023-03-23T18:14:41.678Z,100005.88
2023-03-23T18:17:09.626Z,99993.00
2023-03-23T18:19:39.269Z,99987.47
2023-03-23T18:22:07.341Z,99979.56
2023-03-23T18:24:35.560Z,99985.81
2023-03-23T18:27:03.690Z,99985.81
2023-03-23T18:29:31.889Z,99931.56
2023-03-23T18:31:59.810Z,99983.31
2023-03-23T18:34:27.721Z,99981.66
2023-03-23T18:36:57.383Z,99968.56
2023-03-23T18:39:25.233Z,99933.81
2023-03-23T18:41:53.158Z,99942.72
2023-03-23T18:44:21.217Z,99967.25
2023-03-23T18:46:49.148Z,99963.72
2023-03-23T18:49:17.065Z,99947.91
2023-03-23T18:51:45.059Z,99930.78
2023-03-23T18:54:14.469Z,99950.97
2023-03-23T18:56:42.385Z,99942.00
2023-03-23T18:59:10.769Z,99947.41
2023-03-23T19:01:38.757Z,99939.28
2023-03-23T19:04:07.338Z,99825.28
2023-03-23T19:06:35.738Z,99919.31
2023-03-23T19:09:04.906Z,99936.81
2023-03-23T19:11:34.219Z,99932.78
2023-03-23T19:14:03.598Z,99899.53
2023-03-23T19:16:32.395Z,99925.69
2023-03-23T19:19:01.631Z,99924.91
2023-03-23T19:21:31.550Z,99922.97
2023-03-23T19:24:00.161Z,99919.81
2023-03-23T19:26:29.840Z,99934.69
2023-03-23T19:31:30.381Z,99895.81
2023-03-23T19:33:58.577Z,99931.13
2023-03-23T19:36:26.758Z,99922.41
2023-03-23T19:38:57.650Z,99922.19
2023-03-23T19:41:27.042Z,99922.41
2023-03-23T19:43:55.522Z,99921.34
2023-03-23T19:46:26.479Z,99907.66
2023-03-23T19:48:57.378Z,99889.72
2023-03-23T19:51:25.405Z,99897.88
2023-03-23T19:53:53.710Z,99891.72
2023-03-23T19:56:22.459Z,99895.50
2023-03-23T19:58:50.668Z,99901.53
2023-03-23T20:01:18.826Z,99896.31
2023-03-23T20:03:48.267Z,99898.81
2023-03-23T20:06:16.639Z,99892.53
2023-03-23T20:08:45.709Z,99884.41
2023-03-23T20:11:14.736Z,99886.28
2023-03-23T20:13:42.726Z,99888.16
2023-03-23T20:16:10.897Z,99881.69
2023-03-23T20:18:40.315Z,99885.47
2023-03-23T20:21:10.838Z,99886.28
2023-03-23T20:23:39.269Z,99878.16
2023-03-23T20:26:09.950Z,99880.03
2023-03-23T20:28:38.254Z,99876.47
2023-03-23T20:31:16.719Z,99868.34
2023-03-23T20:34:01.039Z,99866.44
2023-03-23T20:36:35.881Z,99852.03
2023-03-23T20:39:05.164Z,99845.44
2023-03-23T20:41:35.946Z,99846.75
2023-03-23T20:44:04.483Z,99845.78
2023-03-23T20:46:32.487Z,99827.72
2023-03-23T20:49:00.994Z,99835.97
2023-03-23T20:51:30.421Z,99836.72
2023-03-23T20:53:58.373Z,99794.00
2023-03-23T20:56:26.870Z,99828.81
2023-03-23T20:58:54.885Z,99828.00
2023-03-23T21:01:22.909Z,99838.69
2023-03-23T21:03:53.977Z,99837.88
2023-03-23T21:06:22.378Z,99828.34
2023-03-23T21:08:52.934Z,99834.09
2023-03-23T21:11:22.078Z,99832.22
2023-03-23T21:13:50.679Z,99816.75
2023-03-23T21:16:19.375Z,99832.22
2023-03-23T21:18:48.398Z,99794.81
2023-03-23T21:21:18.604Z,99830.56
2023-03-23T21:23:52.781Z,99837.66
2023-03-23T21:26:23.614Z,99831.38
2023-03-23T21:28:54.101Z,99827.00
2023-03-23T21:31:23.208Z,99827.84
2023-03-23T21:33:51.476Z,99816.31
2023-03-23T21:36:19.374Z,99827.00
2023-03-23T21:38:50.098Z,99820.53
2023-03-23T21:41:18.102Z,99825.38
2023-03-23T21:43:47.484Z,99826.22
2023-03-23T21:46:18.237Z,99823.50
2023-03-23T21:48:51.295Z,99815.09
2023-03-23T21:51:21.243Z,99813.69
2023-03-23T21:53:49.184Z,99798.13
2023-03-23T21:56:17.150Z,99815.09
2023-03-23T21:58:45.380Z,99810.38
2023-03-23T22:01:14.839Z,99813.44
2023-03-23T22:03:42.892Z,99814.28
2023-03-23T22:06:12.984Z,99814.28
2023-03-23T22:08:41.816Z,99813.22
2023-03-23T22:11:12.346Z,99812.38
2023-03-23T22:13:40.709Z,99816.97
2023-03-23T22:16:10.061Z,99809.66
2023-03-23T22:18:40.064Z,99806.13
2023-03-23T22:21:08.162Z,99803.06
2023-03-23T22:23:36.807Z,99796.34
2023-03-23T22:26:05.081Z,99797.16
2023-03-23T22:28:33.133Z,99802.84
2023-03-23T22:31:01.641Z,99792.53
2023-03-23T22:33:29.858Z,99798.81
2023-03-23T22:36:00.191Z,99785.50
2023-03-23T22:38:28.243Z,99658.75
2023-03-23T22:40:57.494Z,99792.53
2023-03-23T22:43:26.972Z,99783.56
2023-03-23T22:45:55.112Z,99783.56
2023-03-23T22:48:23.936Z,99773.81
2023-03-23T22:50:51.988Z,99762.13
2023-03-23T22:53:21.529Z,99759.03
2023-03-23T22:55:50.585Z,99734.25
2023-03-23T22:58:18.903Z,99763.19
2023-03-23T23:00:48.314Z,99750.44
2023-03-23T23:03:16.612Z,99729.78
2023-03-23T23:05:45.244Z,99743.13
2023-03-23T23:08:15.196Z,99739.56
2023-03-23T23:10:47.701Z,99730.25
2023-03-23T23:13:15.763Z,99714.34
2023-03-23T23:15:45.767Z,99726.47
2023-03-23T23:18:14.256Z,99720.81
2023-03-23T23:20:43.340Z,99730.81
2023-03-23T23:23:11.624Z,99728.13
2023-03-23T23:25:39.671Z,99724.56
2023-03-23T23:28:09.219Z,99714.81
2023-03-23T23:30:37.604Z,99679.06
2023-03-23T23:33:06.299Z,99712.88
2023-03-23T23:35:34.723Z,99706.91
2023-03-23T23:38:03.614Z,99697.69
2023-03-23T23:40:32.989Z,99695.81
2023-03-23T23:43:01.093Z,99694.97
2023-03-23T23:45:31.096Z,99683.28
2023-03-23T23:47:59.218Z,99687.88
2023-03-23T23:50:27.764Z,99674.31
2023-03-23T23:52:56.270Z,99671.59
2023-03-23T23:55:24.346Z,99670.78
2023-03-23T23:57:52.345Z,99668.06
